Gray Army Air Field Fort Lewis,Tacoma US
ICAO: KGRF
IATA: GRF
Category: Medium
Scheduled Services: No

Elevation: 300 ft
TransAlt. 18000 ft.

Airport Communications:
SEATTLE APP/DEP:120.1
ATIS:124.65
CTAF:119.325
GND/CLNC DEL:121.9
AR OPS:36.1
ARNG OPS:36.55
OPS:32.3
PMSV METRO:134.1
BULLSEYE RDO:36.7
TWR:119.325

KGRF Zoom In..

Runways:

(A) RW 15 length 6125 ft width 150 ft
ILS 108.30 / hdg 151

(B) RW 33 length 6125 ft width 150 ft
---- / hdg 331

Location; KGRF
Day. 17 / Time. 06.58 Zulu
* Altimeter: 29.98
* Temperature: 22° c. 71.6°f.
* Wind from: 260° Speed 04 kn.
Dewpoint: 11° c.
Visibility: 10 Statute Miles.
Clouds: Clear (automated report).

KGRF 170658Z 26004KT 10SM CLR 22/11 A2998 RMK AO2A SLP154 T02150112 $


Wind From 260°
Speed 04 kn.

 
 
jpsmedia.com for Web Design worldairports.se 2018   terms of use